2 Way Connector Import to India

Connect2India provides real time data for 2 Way Connector import, historical 2 Way Connector import analysis, current demand in overseas countries and import price of 2 Way Connector.

2 Way Connector

2 Way Connector import data

Date HS Code Product Description Origin Port Destination Port Quantity Value (INR in Million) Unit Per Unit (INR)
2016-01-27 84818030 WE10DH66B0240-G0 4/2-WAY DIRECTIONAL VALVE CONTROL VOLTAGE 24VDC WITHOUT RECTIFIER CONNECTOR (QTY:1STK@129.56 EUR/STK) GERMANY Chennai Air Cargo 4 0.0106 KGS 2646.0
2016-01-27 85366990 006-8600177-R CONNECTOR 2 WAY RT.A SHROUDED HEADER (GOLD) MEXICO Bombay Air Cargo 1890 0.0226 PCS 11.0
2016-01-27 85366990 007-2011502-R CON 2 WAY HEADER CONNECTOR MEXICO Bombay Air Cargo 6500 0.0241 PCS 3.0
2016-01-28 85369090 HK116-02010 2 WAY CONNECTOR KOREA,REPUBLIC OF Chennai Sea 20000 0.0483 PCS 2.0
2016-01-28 85369090 KPB629-02527 2 WAY CONNECTOR-GREY KOREA,REPUBLIC OF Chennai Sea 20000 0.2431 PCS 12.0
2016-01-30 85472000 10724078 CONNECTOR 2 WAY POSI LOK HOUSING (T TYPE) (FOR CAPTIVE CONSUMPTION) UNITED ARAB EMIRATES Bombay Air Cargo 4000 0.0051 PCS 1.0
2016-02-01 85366990 180923 964736 CONNECTOR HOUSING PLUG 2 WAY UNITED KINGDOM Banglore Air Cargo 5 0.0 PCS 6.0
2016-02-03 85366990 009-0025663-R CONNECTOR CON 2 WAY VERT SMT LATCH HEADER 3MMPITC CHINA Bombay Air Cargo 1800 0.0709 PCS 39.0
2016-02-03 85366990 009-0025663-R CONNECTOR CON 2 WAY VERT SMT LATCH HEADER 3MMPITC TAIWAN Bombay Air Cargo 1800 0.0709 PCS 39.0
2016-02-03 85472000 2 WAY POSI-LOCK HOUSING (T TYPE) (PART NO. 10724078) (CONNECTOR) (FOR CAPTIVE CONSUMPTION) UNITED ARAB EMIRATES Delhi Air Cargo 4000 0.0051 PCS 1.0
2016-02-03 85366990 CONNECTOR HOUSING PLUG 2 WAY PLASTIC 3357685 SINGAPORE Banglore Air Cargo 100 2.0E-4 NOS 1.0
2016-02-03 85369090 2 WAY CONNECTOR - T14EM11-02 (LIST 21 SL NO 3) (FOR MFG PURPOSE) TAIWAN Banglore Air Cargo 500 0.0054 NOS 10.0
2016-02-04 85472000 15337969 CONNECTOR - F250 2-WAY CONNECTOR (FOR CAPTIVE CONSUMPTION) KOREA,REPUBLIC OF Bombay Air Cargo 4000 0.0058 PCS 1.0
2016-02-05 85472000 CONN 2- WAY (CONNECTOR) (PART NO. 13593045) ( FOR CAPTIVE CONSUMPTION) KOREA,REPUBLIC OF Delhi Air Cargo 8000 0.0192 PCS 2.0
2016-02-06 85389000 DFK 1/2 - HOUSINGS 2 WAY - HOUSING 16437577501 (CONNECTOR PARTS) GERMANY Bombay Air Cargo 4000 0.029 PCS 7.0
2016-02-08 84439959 2-WAY VALVE-MID CONNECTOR ( PRINTER PARTS) CHINA Bombay Air Cargo 25 0.0026 PCS 103.0
2016-02-08 85369090 HK116-02010 2 WAY CONNECTOR (COMPONENT OF WIRING HARNESS) KOREA,REPUBLIC OF Chennai Air Cargo 13500 0.0343 PCS 2.0
2016-02-08 85367000 DBC TECHNOLOGIES BRAND 2 WAY FIBER COUPLER (PLC) WITH SC/UPC CONNECTOR (WITHOUT CASING) CHINA Bombay Sea 400 0.0124 PCS 31.0
2016-02-09 85389000 CONNECTOR FPC 2 WAY, 532610271 SINGAPORE Banglore Air Cargo 2000 0.0146 NOS 7.0
2016-02-10 94019000 2037607 CONNECTOR BLOCK MTG BRKT, 2 WAY (QTY 500 PCS) (UNITPRICE 6.94 THB) (PARTS FOR CAR SEAT ASSEMBLY) THAILAND Chennai Sea 15 0.0072 KGS 481.0
2016-02-11 85177090 PLANAR LIGHTWAVE CIRCUIT(PLC) COUPLER:PLC COUPLER-2 WAY 0.9FIBER WITHOUT CONNECTOR CHINA Bombay Air Cargo 100 0.016 UNT 159.0
2016-02-11 85366990 CON 2 WAY HEADER CONNECTOR 007-2011502-R MEXICO Bombay Air Cargo 5000 0.0181 PCS 3.0
2016-02-11 85366990 CON 2 WAY RT.A SHROUDED HEADER (GOLD) CONNECTOR 006-8600177-R MEXICO Bombay Air Cargo 3010 0.0351 PCS 11.0
2016-02-11 90189099 MANIFOLD 2-WAY 500PSI ON(HIGH PRESSURE STOPCOCK CONNECTOR ) (ACCESS FOR P.T.C.A.) CHINA Delhi Air Cargo 500 0.0368 NOS 73.0
2016-02-12 85171890 SPLITTER PARTS WITH FEMALE CONNECTOR FOR 2 WAY MODEL: CSL-S2 ( TELECOM PROJECT FOR MFG ONLY) CHINA Bangalore ICD 1000 0.2311 NOS 231.0
2016-02-15 85389000 AT04-2P CONNECTOR RECEPTACLE 2 WAY (PARTS OF CONNECTOR) CHINA Chennai Air Cargo 20 8.0E-4 PCS 39.0
2016-02-17 85444999 DBC TECHNOLOGIES BRAND 2 WAY FWDM FIBER COUPLER WITHOUT CONNECTOR & CASING CHINA Bombay Sea 100 0.0152 PCS 152.0
2016-02-17 85472000 F 090III 2-WAY CONN (CONNECTOR) (PART NO. 13606626) ( FOR CAPTIVE CONSUMPTION) KOREA,REPUBLIC OF Delhi Air Cargo 4000 0.0193 PCS 4.0
2016-02-17 85472000 F 090III 2-WAY CONN (CONNECTOR) (PART NO.13606626) ( FOR CAPTIVE CONSUMPTION) KOREA,REPUBLIC OF Delhi Air Cargo 4000 0.0193 PCS 4.0
2016-02-17 85472000 F 2-WAY CONNECTOR (CONNECTOR) (PART NO. 15337983) ( FOR CAPTIVE CONSUMPTION) KOREA,REPUBLIC OF Delhi Air Cargo 800 0.0103 PCS 12.0
2016-02-17 85472000 F 2-WAY CONNECTOR (CONNECTOR) (PART NO. 15386531) ( FOR CAPTIVE CONSUMPTION) KOREA,REPUBLIC OF Delhi Air Cargo 5000 0.0196 PCS 3.0
2016-02-17 85472000 F MARK-II 2-WAY CONNECTOR (CONNECTOR) (PART NO. 10776912) ( FOR CAPTIVE CONSUMPTION) KOREA,REPUBLIC OF Delhi Air Cargo 2600 0.0164 PCS 6.0
2016-02-17 85366990 CONNECTOR CON 2 WAY VERT SMT LATCH HEADER 3MM PITC 009-0025663-R MEXICO Bombay Air Cargo 1800 0.0709 PCS 39.0
2016-02-17 85367000 DBC TECHNOLOGIES BRAND 2 WAY FWDM FIBER COUPLER WITH SC/UPC CONNECTORS CHINA Bombay Sea 100 0.0173 PCS 172.0
2016-02-19 85366990 CON 2 WAY RT.A SHROUDED HEADER (GOLD) CONNECTOR 006-8600177-R MEXICO Bombay Air Cargo 4060 0.0475 PCS 11.0
2016-02-20 85472000 13646729 CONNECTOR - F 2.8MM 2-WAY CONN (FOR CAPTIVE CONSUMPTION) KOREA,REPUBLIC OF Bombay Air Cargo 6000 0.1045 PCS 17.0
2016-02-22 40169990 794270-1 3194929 WIRE SEAL, 2 WAY, MATE-N-LOCK CONNECTOR UNITED KINGDOM Banglore Air Cargo 200 0.0022 PCS 10.0
2016-02-23 83024900 FURNITURE FITTINGS CONNECTOR - 2 WAYS MC3210T-01 (KGF.CGC001) MADE UP OF MS (QTY-100 PCS) TAIWAN Nhava Sheva Sea 3 0.0137 KGS 4577.0
2016-02-23 85472000 F 070 2-WAY CONNECTOR (CONNECTOR) (PART NO. 15386293) ( FOR CAPTIVE CONSUMPTION) KOREA,REPUBLIC OF Delhi Air Cargo 4800 0.0157 PCS 3.0
2016-02-23 85472000 F MARK-II 2-WAY CONNECTOR (CONNECTOR) (PART N0. 10776912) ( FOR CAPTIVE CONSUMPTION) KOREA,REPUBLIC OF Delhi Air Cargo 2600 0.0162 PCS 6.0
2016-02-23 85472000 F RUB/SEAL 2-WAY CONNECTOR (CONNECTOR) (PART NO. 13878083) ( FOR CAPTIVE CONSUMPTION) KOREA,REPUBLIC OF Delhi Air Cargo 900 0.0104 PCS 11.0
2016-02-24 85369090 KPB629-0252 2 WAY CONNECTOR-GREY (COMPONENT FORAUTOMOTIVE WIRING HARNESS) KOREA,REPUBLIC OF Chennai Air Cargo 10000 0.132 PCS 13.0
2016-02-24 94054090 ATR03U000 LED 2 WAY STRAIGHT TRACK CONNECTOR,SURFACE TYPE CHINA Nhava Sheva Sea 100 0.0117 UNT 116.0
2016-02-24 94054090 ATR04U000 LED 2 WAY L TRACK CONNECTOR,SURFACE TYPE CHINA Nhava Sheva Sea 40 0.005 UNT 124.0
2016-02-25 85369090 2 WAY SPLIT CONNECTOR (USE FOR TELECOMMUNICATION)(LIST. 21 SR. 3 ) CHINA Patparganj 95 0.0235 PCS 247.0
2016-02-26 85366990 2-WAY POWER DIVIDER 0.5-2.0GHZ CONNECTORS: SMA FEMALE ITEM:AS3260 P/NO:454572610290 UNITED KINGDOM Hyderabad Air Cargo 1 0.0605 UNT 60453.0
2016-02-27 85472000 F 070 2 WAY CONNECTOR (PART NO.15386293) (COMPONENT OF WIRE HARNESS) (FOR CAPTIVE CONSUMPTION) KOREA,REPUBLIC OF Delhi Air Cargo 4800 0.0156 PCS 3.0
2016-02-27 85472000 F MARK II 2-WAY CONNECTOR (PART NO.10776912) (COMPONENT OF WIRE HARNESS) (FOR CAPTIVE CONSUMPTION) KOREA,REPUBLIC OF Delhi Air Cargo 2600 0.0161 PCS 6.0
2016-02-27 85472000 F RUB / SEAL 2 WAY CONNECTOR (PART NO.13878083) (COMPONENT OF WIRE HARNESS) (FOR CAPTIVE CONSUMPTION) KOREA,REPUBLIC OF Delhi Air Cargo 900 0.0104 PCS 11.0
2016-02-27 94019000 2037607 CONNECTOR BLOCK MTG BRKT, 2 WAY (QTY:1000 PCS) (UNITPRICE:6.94 THB) (PARTS FOR CAR SEAT ASSEMBLY) THAILAND Chennai Sea 30 0.0144 KGS 479.0
2016-02-29 85366990 DT06-2S 2 WAY DT CONN REC (CONNECTOR)(FOR MFG PURPOSE)(LIST 21 SL# -3) UNITED ARAB EMIRATES Banglore Air Cargo 2791 0.0597 PCS 21.0
2016-02-29 85366990 W2P 2 WAY DEUTSCH MALE WEDGE LOCK(SE-1113) (CONNECTOR)(FOR MFG PURPOSE)(LIST 21 SL# -3) UNITED ARAB EMIRATES Banglore Air Cargo 500 9.0E-4 PCS 1.0
2016-02-29 85366990 W2S 2 WAY DT WEDGE (CONNECTOR)(FOR MFG PURPOSE)(LIST 21 SL# -3) UNITED ARAB EMIRATES Banglore Air Cargo 2791 0.0063 PCS 2.0
2016-03-01 85369090 CONNECTOR CIR ACCE HEAT SHRINK BOOT 2 WAY DIA, 203-1-B7WM250, P/N 402-03008, BEPO 7000004529 SINGAPORE Banglore Air Cargo 9 0.0056 NOS 617.0
2016-03-01 85369090 CONNECTOR CIR ACCE HEAT SHRINK BOOT 2 WAY DIA, 203-1-B7WM250, P/N 402-03008, BEPO 7000004976 SINGAPORE Banglore Air Cargo 9 0.0056 NOS 617.0
2016-03-01 85389000 CONNECTOR HOUSING 2 WAY, 510650200 SINGAPORE Banglore Air Cargo 20000 0.0236 NOS 1.0
2016-03-02 94019000 2037607 CONNECTOR BLOCK MTG BRKT, 2 WAY (QTY:500 PCS) (UNITPRICE:6.94 THB) (PARTS FOR CAR SEAT ASSEMBLY) THAILAND Chennai Sea 15 0.0071 KGS 474.0
2016-03-02 94039000 HARDWARE-E-FLEX 2 WAY CONNECTOR-H1200 (104 PC)(ALUMINIUM) MALAYSIA Nhava Sheva Sea 8 0.0319 KGS 3983.0
2016-03-05 85472000 15386250 CONNECTOR M MN-AL 2-WAY CONNECTOR (FOR CAPTIVE CONSUMPTION) KOREA,REPUBLIC OF Bombay Air Cargo 6500 0.0127 PCS 1.0
2016-03-05 85369090 2 WAY TERMINAL BLOCK (P/N.T33EM11x02) (T33MEM11-02)-(CONNECTOR)-(IN BULK PACKING) TAIWAN Delhi Air Cargo 2000 0.025 PCS 12.0
2016-03-05 85369090 3 WAY CONNECTOR (SR13-12 SS 1/2"(4 TYPE) (CAPTIVE USE) PARTSFOR LUBRICATION MACHINE FOR OIL FILLING UNIT JAPAN Delhi Air Cargo 20 0.003 PCS 151.0
2016-03-08 85472000 F MARK-II 2-WAY CONNECTOR (CONNECTOR) (PART NO.10776912) ( FOR CAPTIVE CONSUMPTION) KOREA,REPUBLIC OF Delhi Air Cargo 2600 0.0163 PCS 6.0
2016-03-08 85389000 CONNECTOR HEADER 2 WAY, 22232021 SINGAPORE Banglore Air Cargo 20000 0.0305 NOS 1.0
2016-03-08 85389000 CONNECTOR HOUSING 2 WAY, 22012025 SINGAPORE Banglore Air Cargo 20000 0.029 NOS 1.0
2016-03-08 85369090 2 WAY CONNECTOR - MH120-016M402DD01 (LIST 21 SL NO 3) (FOR MFG PURPOSE) TAIWAN Banglore Air Cargo 2000 0.0712 NOS 35.0
2016-03-08 85369090 2 WAY FEMALE CONNECTOR - MC420-38102Z (LIST 21 SL NO 3)(FOR MFG PURPOSE) TAIWAN Banglore Air Cargo 100 0.0011 NOS 10.0
2016-03-09 85437099 2 WAY 50W POWER DIVIDER WITH N(F) CONNECTORS, P/N DI-2-1700-2100-50-NF-NF, BEPO 3800040791 NETHERLANDS Banglore Air Cargo 3 0.0554 NOS 18477.0
2016-03-10 85366990 CON 2 WAY HEADER CONNECTOR 007-2011502-R POLAND Bombay Air Cargo 8000 0.027 PCS 3.0

2 Way Connector Trade Data - Indian Ports

S. No Product Product Code Quantity Value (INR in Million) Unit Origin Port Destination Port
007-2011502-R CON 2 WAY HEADER CONNECTOR 85366990 6500 0.0241 PCS MEXICO Bombay Air Cargo
13646729 CONNECTOR F 2.8MM 2-WAY CONN (FOR CAPTIVE CONSUMPTION) 85472000 6000 0.1067 PCS KOREA,REPUBLIC OF Bombay Air Cargo
F MARK-II 2-WAY CONNECTOR (CONNECTOR) (PART N0:10776912) ( FOR CAPTIVE CONSUMPTION) 85472000 2600 0.0178 PCS KOREA,REPUBLIC OF Delhi Air Cargo
RX2 2 WAY CONNECTOR H1200 ( PARTS OF FURNITURES ) 94039000 4 0.0022 NOS MALAYSIA Bangalore ICD
VLP-02V 7356340 CONNECTOR HOUSING, PLUG, 2 WAY, PLASTIC 85366990 100 6.0E-4 PCS UNITED KINGDOM Banglore Air Cargo
CONNECTOR BREAKA WAY HEADER 2 WAY 1RO 1550562 85366990 45 2.0E-4 NOS SINGAPORE Banglore Air Cargo
CONNECTOR 2 WAYS-7701062326 ( CAR PARTS ) 87089900 70 0.0165 PCS FRANCE Bombay Air Cargo
DFK 1/2 - HOUSINGS 2 WAY - HOUSING 16437577501 (CONNECTOR PARTS) 85389000 4000 0.0282 PCS GERMANY Bombay Air Cargo
10724078 CONNECTOR 2 WAY POSI-LOK HOUSING (T TYPE) (FOR CAPTIVE CONSUMPTION) 85472000 4000 0.005 PCS UNITED ARAB EMIRATES Bombay Air Cargo
006-8600177-R CON 2 WAY RT.A SHROUDED HEADER (GOLD) CONNECTOR 85366990 3640 0.0419 PCS MEXICO Bombay Air Cargo
13646729 CONNECTOR F 2.8MM 2-WAY CONN (FOR CAPTIVE CONSUMPTION) 85472000 6000 0.101 PCS KOREA,REPUBLIC OF Bombay Air Cargo
12010973 CONNECTOR 2 WAY MALE W/P SHD 85369090 20 3.0E-4 NOS SWEDEN Nhava Sheva Sea
TWO WAY SPLITTER CONNECTOR MODEL: PD-2.5G2-01A 2 WAY ( FORPROJECT & MFG PURPOSE RSP NA) 85369090 4 0.0012 NOS CHINA Banglore Air Cargo
S2B-ZR-SM3A-TF SHROUDED HEADER CONNECTOR 2 WAY SMT,466574430281 PO 4200133859(FOR CAPTIVE CONSUMPTION) 85366990 305 0.0047 NOS MALAYSIA Delhi Air Cargo
CABLE MOUNT CONNECTOR 2 WAY 1 ROW BLACK MALE ( 15300002 ) METRI PACK 280 CONNECTOR PART ( CRUSHER PARTS - MFG PURPOSE ) 85369090 6 0.0041 NOS UNITED KINGDOM Banglore Air Cargo
CONNECTOR HEADER 2 WAY, 5023520210 85389000 30 4.0E-4 NOS SINGAPORE Banglore Air Cargo
CONNECTOR HOUSING DURA, CLIK 2 WAY, 5023510200 85389000 30 1.0E-4 NOS SINGAPORE Banglore Air Cargo
TELECOM EQUIPMENT : INDOOR 2 WAY TAP CONNECTOR 85367000 2000 0.0281 UNT CHINA Bombay Air Cargo
13606626 CONNECTOR F 090III 2-WAY CONN (FOR CAPTIVE CONSUMPTION) 85472000 4000 0.0183 PCS KOREA,REPUBLIC OF Bombay Air Cargo
SPLIITER PARTS WITH FEMALES CONNECTORS FOR 2 WAY MODEL: CSL-S2(TELECOM PROJECT FOR MFG ONLY) 85171890 300 0.069 NOS CHINA Bangalore ICD
794270-1 3194929 WIRE SEAL, 2 WAY, MATE-N-LOCK CONNECTOR 40169990 1000 0.0112 PCS UNITED KINGDOM Banglore Air Cargo
DEUTSCH 2 WAY CONNECTOR KIT - DE-DT2-1 85366990 3 7.0E-4 NOS AUSTRALIA Nhava Sheva Sea
F MARK-II 2-WAY CONNECTOR (CONNECTOR) (PART NO.10776912) (FOR CAPTIVE CONSUMPTION) 85472000 2600 0.0173 PCS KOREA,REPUBLIC OF Delhi Air Cargo
DT04-2P 2 WAY DEUTSCH MALE CONNECTOR (SE-1112) (CONNECTOR) (LIST 21 SL# NO-3)(FOR MFG PURPOSE) 85366990 500 0.0115 PCS UNITED ARAB EMIRATES Banglore Air Cargo
W2S 2 WAY DEUTSCH FEMALE WEDGE LOCK (SE-1061) (CONNECTOR) (LIST 21 SL# NO-3)(FOR MFG PURPOSE) 85366990 1300 0.0028 PCS UNITED ARAB EMIRATES Banglore Air Cargo

Looking to import 2 Way Connector?

With end to end global trade solutions from Connect2India, we enable Indian SMEs to start and grow their business globally

Yearwise analysis of 2 Way Connector import to India

Below is the detailed list of 2 Way Connector import to India with quantity, volume, price, origin port and the destination port.

Increase your 2 Way Connector imports with steady access to working capital with our import financing solutions at Connect2India.

Looking to import 2 Way Connector from genuine and best quality Indian suppliers?

Graphical representation for 2 Way Connector import

2 Way Connector - Recent import data

How connect2india can help you import 2 Way Connector?

Connect2India can help you find 2 Way Connector suppliers / exporters in more than 100 countries, arrange import orders for 2 Way Connector, find the most effective market to import 2 Way Connector, help you out with procedures and formalities required to import 2 Way Connector in India and also assist you in 2 Way Connector shipment and logistics. Our trade experts are always available for any help regarding the import of 2 Way Connector and its products. If you want more information, please get in touch with our trade experts here

People Also Ask

Whom can I contact for more information on 2 Way Connector import to India?

You can submit your requirement on Connect2India and our representative will get in touch with you with more information about 2 Way Connector. Alternatively, you can call us @ +91-7876759999 or email us to info@connect2India.com

Which is the most popular Indian port for 2 Way Connector import?

Delhi Air Cargo is the most popular port for 2 Way Connector import to India

What are the top three import shipments of 2 Way Connector traded to India?

Following are the top three import shipments of 2 Way Connector traded to India :

  • WE10DH66B0240-G0 4/2-WAY DIRECTIONAL VALVE CONTROL VOLTAGE 24VDC WITHOUT RECTIFIER CONNECTOR (QTY:1STK@129.56 EUR/STK)
  • 006-8600177-R CONNECTOR 2 WAY RT.A SHROUDED HEADER (GOLD)
  • 007-2011502-R CON 2 WAY HEADER CONNECTOR